• Join FlightAware (Why Join?)
  • Login
  • US Flag 
07:06PM EDT


 

Airport Tracker/Info


-or-


 

Live Flight TrackerFlight Track Log ✈ KLM1199 ✈ 18-Jul-2013 ✈ EHAM / AMS - ENZV / SVG

Flight Track Log - Related Links

Times and Time Zones

All times are in EDT time to prevent confusion due to time zone crossing. See the KLM1199 flight status page for this flight to view local times or setup timezone preferences in your user account.

Time Position Orientation Groundspeed Altitude Reporting Facility
EDT Latitude Longitude Course Direction KTS MPH feet Rate Location/Type
03:46AM 52.3000 4.7580 239° Southwest 24 28  Level FlightAware
03:47AM 52.2980 4.7530 237° Southwest 15 17  Level FlightAware
03:47AM 52.2990 4.7500 299° West 18 21  Level FlightAware
03:48AM 52.3020 4.7460 321° Northwest 22 25  Level FlightAware
03:48AM 52.3030 4.7440 309° West 16 18  Level FlightAware
03:49AM 52.3020 4.7410 241° Southwest 19 22  Level FlightAware
03:49AM 52.3000 4.7390 211° Southwest 21 24  Level FlightAware
03:50AM 52.3000 4.7330 270° West 21 24 60 Level FlightAware
03:50AM 52.3030 4.7330 360° North 24 28 60 Level FlightAware
03:51AM 52.3050 4.7330 360° North 25 29 60 Level FlightAware
03:51AM 52.3080 4.7340 12° North 27 31 60 Level FlightAware
03:52AM 52.3120 4.7340 360° North 27 31 60 Level FlightAware
03:52AM 52.3150 4.7340 360° North 26 30 60 Level FlightAware
03:53AM 52.3190 4.7350 North 25 29 60 Level FlightAware
03:53AM 52.3210 4.7330 329° Northwest 21 24 60 Level FlightAware
03:53AM 52.3240 4.7300 329° Northwest 24 28 60 Level FlightAware
03:54AM 52.3260 4.7270 317° Northwest 25 29 120 Level FlightAware
03:54AM 52.3270 4.7240 299° West 23 26 120 Level FlightAware
03:55AM 52.3290 4.7210 317° Northwest 26 30 120 Level FlightAware
03:55AM 52.3310 4.7170 309° West 21 24 120 Level FlightAware
03:55AM 52.3320 4.7160 329° Northwest 19 22 180 Level FlightAware
03:56AM 52.3300 4.7130 223° Southwest 19 22 180 Level FlightAware
03:56AM 52.3290 4.7110 231° Southwest 16 18 240 Level FlightAware
03:56AM 52.3300 4.7090 309° West 18 21 300 Level FlightAware
03:57AM 52.3400 4.7100 North 120 138 480 Level FlightAware
03:57AM 52.3640 4.7110 North 160 184 500 1,560 Climbing FlightAware
03:58AM 52.3850 4.7140 North 165 190 1,500 2,460 Climbing FlightAware
03:58AM 52.4080 4.7160 North 171 197 2,800 2,340 Climbing FlightAware
03:59AM 52.4390 4.7060 349° North 225 259 4,000 2,100 Climbing FlightAware
03:59AM 52.4500 4.6900 318° Northwest 248 285 4,500 3,120 Climbing FlightAware
04:00AM 52.4730 4.6510 314° West 267 307 6,100 3,660 Climbing FlightAware
04:00AM 52.4860 4.6280 313° West 270 311 7,200 3,900 Climbing FlightAware
04:00AM 52.5120 4.5870 316° Northwest 280 322 9,000 3,600 Climbing FlightAware
04:01AM 52.5480 4.5480 327° Northwest 298 343 10,800 2,280 Climbing FlightAware
04:01AM 52.5884 4.5072 327° Northwest 342 394 11,400 2,340 Climbing FlightAware UK
04:02AM 52.6010 4.4760 327° Northwest 345 397 12,600 3,900 Climbing FlightAware
04:02AM 52.6400 4.3910 307° West 354 407 15,000 3,300 Climbing FlightAware
04:03AM 52.6830 4.2970 307° West 369 425 17,200 2,880 Climbing FlightAware
04:04AM 52.7250 4.2070 308° West 384 442 19,000 2,820 Climbing FlightAware
04:04AM 52.7734 4.1015 308° West 402 463 21,100 3,000 Climbing FlightAware UK
04:04AM 52.7750 4.0990 308° West 398 458 21,200 2,640 Climbing FlightAware
04:05AM 52.8200 3.9980 306° West 408 470 23,000 2,520 Climbing FlightAware
04:06AM 52.8617 3.9072 306° West 422 486 24,400 2,400 Climbing FlightAware UK
04:06AM 52.8660 3.8970 306° West 420 483 24,600 2,160 Climbing FlightAware
04:06AM 52.9080 3.8030 307° West 431 496 25,900 1,980 Climbing FlightAware
04:07AM 52.9620 3.6880 308° West 443 510 27,300 1,980 Climbing FlightAware
04:08AM 53.0300 3.6100 325° Northwest 444 511 28,700 1,980 Climbing FlightAware
04:08AM 53.1033 3.5619 325° Northwest 458 527 29,900 1,860 Climbing FlightAware UK
04:09AM 53.1140 3.5550 325° Northwest 452 520 30,100 2,100 Climbing FlightAware
04:09AM 53.2220 3.4830 338° Northwest 449 517 32,100 2,220 Climbing FlightAware
04:10AM 53.2910 3.4380 339° North 443 510 33,500 2,040 Climbing FlightAware
04:11AM 53.3835 3.4153 339° North 454 522 34,900 1,800 Climbing FlightAware UK
04:11AM 53.4250 3.4280 339° North 424 488 35,600 1,680 Climbing FlightAware
04:12AM 53.4970 3.4520 11° North 422 486 36,700 1,620 Climbing FlightAware
04:13AM 53.5860 3.4820 11° North 421 484 37,900 1,320 Climbing FlightAware
04:13AM 53.6650 3.5090 11° North 424 488 38,600 900 Climbing FlightAware
04:14AM 53.7340 3.5330 11° North 427 491 39,100 960 Climbing FlightAware
04:14AM 53.7397 3.5357 11° North 450 518 39,200 780 Climbing FlightAware UK
04:15AM 53.8214 3.5644 11° North 448 516 39,700 660 Climbing FlightAware UK
04:15AM 53.8210 3.5630 11° North 435 501 39,700 660 Level FlightAware
04:15AM 53.9090 3.5920 11° North 441 507 40,200 720 Climbing FlightAware
04:16AM 53.9910 3.6210 12° North 441 507 40,800 600 Climbing FlightAware
04:17AM 54.0690 3.6490 12° North 437 503 41,000 120 Climbing FlightAware
04:17AM 54.1590 3.6800 11° North 436 502 41,000  Level FlightAware
04:18AM 54.2360 3.7070 12° North 436 502 41,000  Level FlightAware
04:19AM 54.3060 3.7320 12° North 435 501 41,000  Level FlightAware
04:19AM 54.3113 3.7341 12° North 450 518 41,000  Level FlightAware UK
04:19AM 54.3740 3.7550 11° North 436 502 41,000  Level FlightAware
04:20AM 54.4771 3.7927 11° North 452 520 41,000  Level FlightAware UK
04:20AM 54.4750 3.7900 11° North 436 502 41,000  Level FlightAware
04:21AM 54.5740 3.8270 12° North 436 502 41,000  Level FlightAware
04:22AM 54.6590 3.8570 12° North 437 503 41,000  Level FlightAware
04:22AM 54.7420 3.8870 12° North 436 502 41,000  Level FlightAware
04:23AM 54.8190 3.9140 11° North 428 493 41,000  Level FlightAware
04:24AM 54.9060 3.9460 12° North 429 494 41,000  Level FlightAware
04:24AM 54.9820 3.9740 12° North 429 494 41,000  Level FlightAware
04:25AM 55.0640 4.0030 11° North 429 494 41,000  Level FlightAware
04:26AM 55.1330 4.0290 12° North 437 503 41,000  Level FlightAware
04:26AM 55.2100 4.0570 12° North 429 494 41,000  Level FlightAware
04:27AM 55.3421 4.1070 12° North 454 522 41,000  Level FlightAware UK
04:28AM 55.3460 4.1070 12° North 435 501 41,000  Level FlightAware
04:28AM 55.4300 4.1390 12° North 435 501 41,000  Level FlightAware
04:29AM 55.5090 4.1680 12° North 426 490 41,000  Level FlightAware
04:30AM 55.5896 4.1991 12° North 452 520 41,000  Level FlightAware UK
04:30AM 55.5990 4.2020 12° North 426 490 41,000  Level FlightAware
04:30AM 55.6720 4.2302 12° North 452 520 41,000  Level FlightAware UK
04:30AM 55.6770 4.2310 12° North 425 489 41,000  Level FlightAware
04:31AM 55.7670 4.2660 12° North 425 489 41,000  Level FlightAware
04:32AM 55.8470 4.2960 12° North 425 489 41,000  Level FlightAware
04:32AM 55.9301 4.3289 12° North 456 525 41,000  Level FlightAware UK
04:32AM 55.9270 4.3270 12° North 425 489 41,000  Level FlightAware
04:33AM 56.0123 4.3600 12° North 456 525 41,000  Level FlightAware UK
04:33AM 56.0090 4.3580 12° North 432 497 41,000  Level FlightAware
04:34AM 56.0826 4.3872 12° North 456 525 41,000  Level FlightAware UK
04:34AM 56.0860 4.3870 12° North 431 496 41,000  Level FlightAware
04:35AM 56.1640 4.4180 12° North 430 495 41,000  Level FlightAware
04:35AM 56.2510 4.4510 12° North 429 494 41,000  Level FlightAware
04:36AM 56.3230 4.4790 12° North 427 491 41,000  Level FlightAware
04:37AM 56.4130 4.5150 12° North 426 490 41,000  Level FlightAware
04:37AM 56.4778 4.5396 12° North 452 520 41,000  Level FlightAware UK
04:37AM 56.4880 4.5440 12° North 425 489 41,000  Level FlightAware
04:38AM 56.5750 4.5790 12° North 423 487 41,000  Level FlightAware
04:39AM 56.6387 4.6013 12° North 1 1 41,000  Level FlightAware UK
04:39AM 56.6520 4.6090 12° North 423 487 41,000  Level FlightAware
04:39AM 56.7390 4.6430 12° North 425 489 41,000  Level FlightAware
04:40AM 56.8000 4.6680 13° North 426 490 41,000  Level FlightAware
04:41AM 56.8850 4.7020 12° North 425 489 41,000  Level FlightAware
04:41AM 56.9620 4.7330 12° North 425 489 41,000  Level FlightAware
04:42AM 57.0230 4.7580 13° North 425 489 41,000 -240 Level FlightAware
04:43AM 57.1110 4.7940 13° North 422 486 40,700 -1,380 Descending FlightAware
04:43AM 57.1880 4.8250 12° North 419 482 39,100 -2,400 Descending FlightAware
04:44AM 57.2740 4.8600 12° North 419 482 37,300 -2,640 Descending FlightAware
04:45AM 57.3490 4.8910 13° North 421 484 35,400 -2,880 Descending FlightAware
04:45AM 57.4260 4.9230 13° North 422 486 33,500 -2,700 Descending FlightAware
04:46AM 57.5090 4.9580 13° North 412 474 31,700 -2,340 Descending FlightAware
04:47AM 57.5750 4.9860 13° North 403 464 30,400 -2,220 Descending FlightAware
04:47AM 57.6470 5.0160 13° North 393 452 28,900 -2,220 Descending FlightAware
04:48AM 57.7240 5.0480 13° North 380 437 27,300 -2,220 Descending FlightAware
04:49AM 57.7850 5.0740 13° North 373 429 26,000 -2,100 Descending FlightAware
04:49AM 57.8510 5.1020 13° North 365 420 24,700 -2,040 Descending FlightAware
04:50AM 57.9160 5.1300 13° North 358 412 23,300 -2,040 Descending FlightAware
04:51AM 57.9800 5.1570 13° North 352 405 22,000 -1,980 Descending FlightAware
04:51AM 58.0490 5.1870 13° North 346 398 20,600 -1,860 Descending FlightAware
04:52AM 58.1170 5.2160 13° North 338 389 19,300 -1,800 Descending FlightAware
04:53AM 58.1780 5.2430 13° North 331 381 18,100 -1,740 Descending FlightAware
04:54AM 58.2440 5.2710 13° North 330 380 16,900 -1,680 Descending FlightAware
04:54AM 58.2970 5.2940 13° North 327 376 15,900 -1,740 Descending FlightAware
04:55AM 58.3570 5.3210 13° North 322 371 14,700 -1,740 Descending FlightAware
04:56AM 58.4170 5.3380 North 315 362 13,600 -1,680 Descending FlightAware
04:56AM 58.4680 5.3470 North 308 354 12,600 -1,680 Descending FlightAware
04:57AM 58.5240 5.3560 North 300 345 11,500 -1,620 Descending FlightAware
04:58AM 58.5870 5.3680 North 291 335 10,300 -1,140 Descending FlightAware
04:58AM 58.6380 5.3770 North 263 303 9,900 -840 Descending FlightAware
04:59AM 58.6710 5.3820 North 264 304 9,400 -1,200 Descending FlightAware
04:59AM 58.7050 5.3880 North 269 310 8,800 -1,380 Descending FlightAware
04:59AM 58.7210 5.3910 North 269 310 8,500 -1,140 Descending FlightAware
05:03AM 58.8767 5.6378 39° Northeast  Level Estimated
05:03AM 58.9760 5.4360 39° Northeast 231 266 4,300  Level FlightAware
05:04AM 59.0030 5.4460 11° North 225 259 4,100 -660 Descending FlightAware
05:04AM 59.0220 5.4700 33° Northeast 226 260 3,800 -960 Descending FlightAware
05:04AM 59.0430 5.5260 54° Northeast 245 282 3,400 -1,140 Descending FlightAware
05:05AM 59.0370 5.5660 106° East 241 277 3,000 -1,020 Descending FlightAware
05:05AM 59.0280 5.6110 111° Southeast 228 262 2,700 -960 Descending FlightAware
05:05AM 59.0170 5.6340 133° Southeast 208 239 2,400 -960 Descending FlightAware
05:06AM 59.0040 5.6360 175° South 182 209 2,200 -720 Descending FlightAware
05:06AM 58.9940 5.6350 183° South 179 206 2,100 -1,380 Descending FlightAware
05:07AM 58.9520 5.6360 179° South 173 199 900 -1,380 Descending FlightAware
05:07AM 58.9360 5.6360 180° South 153 176 600 -780 Descending FlightAware
05:07AM 58.9280 5.6360 180° South 141 162 500 -660 Descending FlightAware
05:08AM 58.9130 5.6370 178° South 124 143 200 -720 Descending FlightAware
05:08AM 58.8890 5.6380 179° South 124 143 -300 Descending FlightAware
05:09AM 58.8770 5.6380 180° South 13 15  Level FlightAware
05:09AM 58.8770 5.6360 270° West 14 16  Level FlightAware
05:10AM 58.8780 5.6330 303° West 14 16  Level FlightAware
05:10AM 58.8790 5.6330 360° North 14 16  Level FlightAware
05:11AM 58.8810 5.6300 322° Northwest 8 9  Level FlightAware
05:14AM 58.8767 5.6378 137° Southeast  Level Estimated
05:15AM 58.8767 5.6378 199° South  Level Estimated